Terminal Aerodrome Forecast
Issued by NWS La Crosse, WI

Home | Current Version | Previous Version | Text Only | Print | Product List | Glossary On
Versions: 1 2 3 4 5 6 7 8 9 10 11 12 13 14 15 16 17 18 19 20 21
000
FTUS43 KARX 171735
TAFRST
TAF
KRST 171735Z 1718/1818 29020G29KT P6SM OVC015
     FM180000 29012G19KT P6SM BKN035
     FM180500 29008KT P6SM SCT035
     FM181300 29007KT P6SM BKN080=

USA.gov is the U.S. government's official web portal to all federal, state and local government web resources and services.